createdAt,value
2023-01-13T00:02:02.845Z,9.00
2023-01-13T00:04:50.879Z,9.10
2023-01-13T00:07:43.377Z,9.00
2023-01-13T00:10:31.415Z,9.10
2023-01-13T00:13:26.701Z,9.30
2023-01-13T00:16:18.322Z,9.20
2023-01-13T00:19:07.059Z,9.30
2023-01-13T00:21:55.652Z,9.30
2023-01-13T00:24:43.979Z,9.30
2023-01-13T00:27:35.248Z,9.40
2023-01-13T00:30:25.079Z,9.30
2023-01-13T00:33:21.523Z,10.00
2023-01-13T00:36:13.368Z,9.10
2023-01-13T00:39:11.461Z,9.10
2023-01-13T00:42:16.736Z,9.10
2023-01-13T00:45:06.407Z,9.10
2023-01-13T00:47:54.395Z,9.20
2023-01-13T00:50:42.425Z,9.00
2023-01-13T00:53:35.081Z,9.10
2023-01-13T00:56:40.043Z,9.10
2023-01-13T00:59:29.765Z,9.40
2023-01-13T01:02:27.495Z,8.80
2023-01-13T01:05:15.367Z,8.80
2023-01-13T01:08:03.789Z,7.60
2023-01-13T01:11:01.398Z,8.50
2023-01-13T01:13:52.279Z,7.90
2023-01-13T01:16:41.063Z,9.20
2023-01-13T01:19:28.537Z,9.50
2023-01-13T01:22:16.875Z,8.70
2023-01-13T01:25:04.446Z,8.50
2023-01-13T01:27:53.506Z,8.50
2023-01-13T01:30:47.678Z,8.70
2023-01-13T01:33:38.191Z,8.70
2023-01-13T01:36:30.304Z,8.50
2023-01-13T01:39:18.069Z,8.40
2023-01-13T01:42:24.059Z,8.30
2023-01-13T01:45:19.665Z,8.50
2023-01-13T01:48:11.843Z,8.10
2023-01-13T01:51:02.901Z,8.00
2023-01-13T01:53:51.427Z,8.00
2023-01-13T01:56:50.983Z,8.10
2023-01-13T01:59:41.179Z,8.30
2023-01-13T02:02:32.422Z,8.20
2023-01-13T02:05:24.534Z,8.20
2023-01-13T02:08:16.416Z,8.00
2023-01-13T02:11:34.768Z,7.90
2023-01-13T02:14:25.696Z,8.10
2023-01-13T02:17:26.883Z,7.80
2023-01-13T02:20:29.203Z,6.20
2023-01-13T02:23:56.385Z,7.60
2023-01-13T02:27:08.537Z,7.80
2023-01-13T02:30:21.701Z,7.70
2023-01-13T02:33:20.023Z,8.10
2023-01-13T02:36:16.521Z,7.70
2023-01-13T02:39:06.517Z,7.90
2023-01-13T02:42:27.120Z,7.70
2023-01-13T02:45:18.959Z,7.90
2023-01-13T02:48:08.374Z,7.80
2023-01-13T02:51:04.993Z,7.70
2023-01-13T02:53:58.913Z,7.70
2023-01-13T02:56:50.997Z,7.80
2023-01-13T02:59:46.517Z,8.10
2023-01-13T03:02:36.812Z,8.40
2023-01-13T03:05:48.100Z,8.20
2023-01-13T03:08:43.352Z,8.00
2023-01-13T03:11:33.242Z,8.10
2023-01-13T03:14:28.994Z,8.10
2023-01-13T03:17:21.229Z,8.10
2023-01-13T03:20:14.084Z,8.30
2023-01-13T03:23:06.357Z,8.30
2023-01-13T03:26:03.816Z,8.30
2023-01-13T03:29:03.209Z,8.40
2023-01-13T03:31:55.025Z,8.40
2023-01-13T03:34:46.260Z,9.20
2023-01-13T03:37:40.886Z,8.50
2023-01-13T03:40:30.311Z,9.60
2023-01-13T03:43:39.849Z,8.60
2023-01-13T03:46:31.831Z,8.40
2023-01-13T03:49:23.663Z,8.60
2023-01-13T03:52:13.443Z,8.40
2023-01-13T03:55:06.093Z,8.40
2023-01-13T03:57:59.756Z,8.50
2023-01-13T04:00:49.709Z,8.50
2023-01-13T04:03:45.554Z,8.40
2023-01-13T04:06:36.077Z,8.30
2023-01-13T04:09:30.701Z,8.30
2023-01-13T04:12:26.254Z,8.30
2023-01-13T04:15:14.601Z,8.30
2023-01-13T04:18:13.220Z,10.70
2023-01-13T04:21:05.936Z,8.20
2023-01-13T04:23:54.410Z,8.30
2023-01-13T04:26:44.400Z,8.30
2023-01-13T04:29:33.459Z,8.50
2023-01-13T04:32:22.322Z,8.00
2023-01-13T04:35:10.892Z,10.60
2023-01-13T04:37:58.425Z,8.60
2023-01-13T04:40:46.485Z,9.30
2023-01-13T04:43:35.168Z,8.50
2023-01-13T04:46:26.347Z,8.50
2023-01-13T04:49:17.365Z,8.50
2023-01-13T04:52:09.750Z,8.50
2023-01-13T04:54:57.356Z,8.70
2023-01-13T04:57:45.268Z,8.50
2023-01-13T05:00:36.538Z,8.60
2023-01-13T05:03:34.965Z,11.20
2023-01-13T05:06:22.989Z,9.20
2023-01-13T05:09:12.599Z,8.50
2023-01-13T05:12:20.406Z,8.70
2023-01-13T05:15:31.806Z,8.50
2023-01-13T05:18:22.605Z,8.30
2023-01-13T05:21:32.950Z,8.20
2023-01-13T05:24:38.370Z,8.10
2023-01-13T05:27:29.328Z,8.50
2023-01-13T05:30:18.283Z,8.00
2023-01-13T05:33:06.529Z,8.10
2023-01-13T05:35:59.999Z,7.80
2023-01-13T05:38:49.430Z,7.70
2023-01-13T05:41:56.595Z,7.80
2023-01-13T05:44:50.183Z,6.10
2023-01-13T05:47:40.667Z,8.00
2023-01-13T05:50:51.789Z,7.80
2023-01-13T05:53:41.219Z,7.80
2023-01-13T05:56:35.825Z,7.70
2023-01-13T05:59:29.108Z,7.70
2023-01-13T06:02:18.837Z,7.70
2023-01-13T06:05:11.864Z,7.60
2023-01-13T06:07:59.918Z,7.70
2023-01-13T06:10:52.848Z,7.80
2023-01-13T06:13:52.541Z,7.60
2023-01-13T06:16:41.750Z,7.60
2023-01-13T06:19:32.668Z,7.80
2023-01-13T06:22:27.247Z,7.50
2023-01-13T06:25:30.786Z,7.60
2023-01-13T06:28:34.995Z,8.00
2023-01-13T06:31:28.832Z,7.70
2023-01-13T06:34:16.956Z,7.70
2023-01-13T06:37:15.462Z,7.60
2023-01-13T06:40:04.922Z,7.70
2023-01-13T06:43:17.785Z,7.70
2023-01-13T06:46:08.081Z,7.50
2023-01-13T06:48:59.899Z,7.40
2023-01-13T06:51:56.392Z,7.20
2023-01-13T06:54:48.939Z,7.60
2023-01-13T06:57:37.398Z,7.40
2023-01-13T07:00:28.007Z,7.80
2023-01-13T07:03:24.056Z,7.60
2023-01-13T07:06:24.358Z,7.60
2023-01-13T07:09:15.559Z,7.80
2023-01-13T07:12:04.113Z,7.60
2023-01-13T07:15:11.637Z,7.50
2023-01-13T07:18:04.350Z,7.60
2023-01-13T07:21:03.604Z,7.40
2023-01-13T07:23:54.055Z,7.40
2023-01-13T07:26:44.801Z,7.50
2023-01-13T07:29:35.584Z,7.70
2023-01-13T07:32:26.616Z,8.80
2023-01-13T07:35:15.825Z,7.50
2023-01-13T07:38:03.717Z,8.40
2023-01-13T07:40:52.735Z,7.30
2023-01-13T07:43:51.593Z,7.20
2023-01-13T07:46:41.411Z,7.30
2023-01-13T07:49:29.094Z,7.20
2023-01-13T07:52:19.690Z,7.20
2023-01-13T07:55:11.885Z,5.70
2023-01-13T07:58:06.987Z,8.90
2023-01-13T08:00:55.437Z,7.20
2023-01-13T08:03:44.025Z,7.30
2023-01-13T08:06:31.427Z,7.30
2023-01-13T08:09:19.395Z,7.40
2023-01-13T08:12:26.409Z,7.50
2023-01-13T08:15:15.830Z,7.50
2023-01-13T08:18:03.930Z,7.60
2023-01-13T08:20:57.168Z,7.60
2023-01-13T08:23:54.828Z,7.60
2023-01-13T08:26:43.119Z,7.60
2023-01-13T08:29:32.965Z,7.60
2023-01-13T08:32:23.932Z,8.00
2023-01-13T08:35:12.539Z,10.40
2023-01-13T08:38:01.902Z,7.50
2023-01-13T08:40:49.997Z,7.70
2023-01-13T08:43:42.864Z,7.80
2023-01-13T08:46:34.957Z,8.50
2023-01-13T08:49:25.062Z,7.70
2023-01-13T08:52:14.060Z,7.90
2023-01-13T08:55:03.382Z,7.90
2023-01-13T08:57:56.093Z,7.80
2023-01-13T09:00:47.428Z,8.00
2023-01-13T09:03:35.778Z,7.90
2023-01-13T09:06:27.922Z,7.50
2023-01-13T09:09:15.543Z,7.90
2023-01-13T09:12:21.612Z,8.40
2023-01-13T09:15:13.243Z,8.10
2023-01-13T09:18:03.370Z,5.80
2023-01-13T09:20:51.790Z,8.20
2023-01-13T09:23:40.759Z,8.10
2023-01-13T09:26:29.143Z,8.20
2023-01-13T09:29:21.833Z,8.20
2023-01-13T09:32:12.585Z,8.20
2023-01-13T09:35:00.430Z,9.40
2023-01-13T09:37:51.580Z,8.40
2023-01-13T09:40:44.263Z,8.30
2023-01-13T09:43:56.770Z,8.50
2023-01-13T09:46:48.324Z,8.60
2023-01-13T09:49:37.956Z,8.70
2023-01-13T09:52:29.319Z,9.20
2023-01-13T09:55:22.983Z,8.70
2023-01-13T09:58:14.534Z,9.00
2023-01-13T10:01:08.222Z,9.00
2023-01-13T10:03:59.230Z,6.90
2023-01-13T10:06:49.903Z,9.10
2023-01-13T10:09:45.607Z,9.10
2023-01-13T10:12:51.750Z,9.20
2023-01-13T10:15:43.260Z,9.20
2023-01-13T10:18:36.733Z,9.30
2023-01-13T10:21:33.094Z,9.40
2023-01-13T10:24:26.289Z,9.40
2023-01-13T10:27:19.676Z,9.30
2023-01-13T10:30:18.935Z,9.30
2023-01-13T10:33:12.159Z,9.20
2023-01-13T10:36:01.129Z,9.40
2023-01-13T10:38:51.999Z,9.00
2023-01-13T10:41:39.171Z,10.50
2023-01-13T10:44:32.233Z,9.40
2023-01-13T10:47:25.373Z,9.50
2023-01-13T10:50:26.786Z,9.50
2023-01-13T10:53:18.795Z,9.40
2023-01-13T10:56:07.236Z,9.70
2023-01-13T10:58:54.444Z,9.50
2023-01-13T11:01:43.389Z,10.00
2023-01-13T11:04:33.104Z,9.20
2023-01-13T11:07:28.284Z,10.70
2023-01-13T11:10:22.383Z,8.90
2023-01-13T11:13:12.452Z,8.50
2023-01-13T11:16:03.122Z,8.50
2023-01-13T11:19:12.040Z,8.50
2023-01-13T11:22:04.086Z,8.60
2023-01-13T11:24:55.459Z,8.70
2023-01-13T11:27:52.735Z,8.90
2023-01-13T11:30:44.657Z,9.00
2023-01-13T11:33:34.584Z,8.60
2023-01-13T11:36:24.287Z,8.80
2023-01-13T11:39:17.937Z,8.70
2023-01-13T11:42:24.598Z,10.80
2023-01-13T11:45:20.518Z,8.80
2023-01-13T11:48:18.424Z,8.60
2023-01-13T11:51:10.559Z,8.70
2023-01-13T11:54:06.200Z,10.50
2023-01-13T11:57:18.120Z,9.00
2023-01-13T12:00:15.947Z,9.00
2023-01-13T12:03:19.369Z,9.00
2023-01-13T12:06:23.525Z,7.40
2023-01-13T12:09:19.514Z,9.00
2023-01-13T12:12:23.176Z,9.00
2023-01-13T12:15:31.723Z,9.10
2023-01-13T12:18:34.630Z,9.10
2023-01-13T12:21:30.482Z,9.00
2023-01-13T12:24:20.611Z,9.10
2023-01-13T12:27:12.122Z,9.10
2023-01-13T12:30:05.816Z,9.10
2023-01-13T12:32:58.514Z,9.50
2023-01-13T12:35:52.981Z,9.20
2023-01-13T12:38:44.044Z,9.30
2023-01-13T12:42:03.304Z,9.40
2023-01-13T12:45:24.301Z,9.40
2023-01-13T12:48:55.026Z,9.20
2023-01-13T12:51:57.857Z,9.40
2023-01-13T12:55:11.269Z,9.40
2023-01-13T12:58:00.743Z,9.40
2023-01-13T13:00:58.384Z,9.10
2023-01-13T13:04:02.457Z,9.80
2023-01-13T13:06:53.046Z,8.60
2023-01-13T13:09:47.401Z,9.00
2023-01-13T13:13:07.027Z,10.50
2023-01-13T13:16:16.144Z,9.20
2023-01-13T13:19:19.248Z,8.90
2023-01-13T13:22:21.965Z,8.60
2023-01-13T13:25:30.976Z,8.50
2023-01-13T13:28:23.723Z,8.40
2023-01-13T13:31:21.849Z,8.40
2023-01-13T13:34:22.290Z,9.60
2023-01-13T13:37:30.034Z,8.40
2023-01-13T13:40:40.090Z,8.50
2023-01-13T13:43:48.226Z,8.90
2023-01-13T13:46:51.695Z,8.70
2023-01-13T13:49:42.275Z,8.90
2023-01-13T13:52:35.151Z,9.00
2023-01-13T13:55:25.556Z,9.10
2023-01-13T13:58:19.058Z,9.10
2023-01-13T14:01:07.947Z,9.20
2023-01-13T14:04:04.998Z,9.40
2023-01-13T14:06:54.267Z,9.40
2023-01-13T14:09:47.324Z,9.50
2023-01-13T14:12:40.521Z,9.60
2023-01-13T14:15:33.767Z,9.60
2023-01-13T14:18:25.411Z,9.60
2023-01-13T14:21:19.958Z,9.70
2023-01-13T14:24:15.047Z,9.70
2023-01-13T14:27:20.820Z,9.60
2023-01-13T14:30:17.505Z,9.70
2023-01-13T14:33:07.840Z,9.60
2023-01-13T14:36:14.079Z,10.20
2023-01-13T14:39:21.427Z,9.60
2023-01-13T14:42:13.698Z,9.70
2023-01-13T14:45:02.527Z,9.60
2023-01-13T14:47:53.793Z,9.90
2023-01-13T14:50:43.866Z,10.20
2023-01-13T14:53:37.544Z,11.30
2023-01-13T14:56:49.884Z,9.80
2023-01-13T14:59:53.846Z,9.80
2023-01-13T15:02:43.285Z,9.70
2023-01-13T15:05:37.208Z,10.60
2023-01-13T15:08:38.067Z,10.20
2023-01-13T15:11:26.321Z,8.00
2023-01-13T15:14:23.526Z,9.60
2023-01-13T15:17:20.666Z,10.70
2023-01-13T15:20:14.731Z,9.70
2023-01-13T15:23:04.365Z,9.70
2023-01-13T15:25:52.198Z,9.50
2023-01-13T15:28:41.297Z,9.50
2023-01-13T15:31:30.141Z,8.10
2023-01-13T15:34:20.988Z,10.00
2023-01-13T15:37:10.503Z,9.40
2023-01-13T15:40:01.695Z,9.40
2023-01-13T15:43:09.317Z,9.40
2023-01-13T15:46:13.751Z,9.80
2023-01-13T15:49:10.048Z,9.30
2023-01-13T15:51:58.890Z,9.30
2023-01-13T15:54:47.189Z,9.30
2023-01-13T15:57:38.819Z,9.30
2023-01-13T16:00:26.872Z,9.20
2023-01-13T16:03:16.050Z,9.20
2023-01-13T16:06:03.822Z,9.10
2023-01-13T16:08:55.984Z,9.10
2023-01-13T16:11:44.234Z,9.80
2023-01-13T16:14:33.527Z,9.80
2023-01-13T16:17:24.232Z,9.40
2023-01-13T16:20:21.561Z,8.90
2023-01-13T16:23:10.366Z,9.00
2023-01-13T16:25:58.250Z,8.80
2023-01-13T16:28:46.413Z,11.60
2023-01-13T16:31:36.506Z,8.80
2023-01-13T16:34:27.405Z,8.80
2023-01-13T16:37:20.455Z,8.80
2023-01-13T16:40:09.866Z,8.70
2023-01-13T16:42:58.529Z,8.60
2023-01-13T16:45:51.122Z,9.90
2023-01-13T16:48:41.058Z,8.50
2023-01-13T16:51:32.052Z,8.50
2023-01-13T16:54:19.672Z,11.20
2023-01-13T16:57:11.034Z,8.70
2023-01-13T17:00:01.763Z,10.90
2023-01-13T17:02:51.864Z,8.80
2023-01-13T17:05:48.365Z,8.50
2023-01-13T17:08:38.817Z,9.00
2023-01-13T17:11:27.332Z,8.50
2023-01-13T17:14:18.394Z,8.40
2023-01-13T17:17:11.265Z,8.70
2023-01-13T17:20:00.385Z,8.20
2023-01-13T17:22:58.050Z,8.60
2023-01-13T17:25:47.126Z,8.20
2023-01-13T17:28:34.715Z,8.20
2023-01-13T17:31:22.747Z,8.00
2023-01-13T17:34:15.491Z,8.10
2023-01-13T17:37:03.076Z,8.10
2023-01-13T17:39:53.828Z,8.20
2023-01-13T17:42:41.383Z,8.20
2023-01-13T17:45:29.395Z,8.10
2023-01-13T17:48:20.715Z,8.10
2023-01-13T17:51:13.983Z,8.30
2023-01-13T17:54:02.573Z,9.30
2023-01-13T17:56:51.802Z,8.40
2023-01-13T17:59:39.144Z,8.60
2023-01-13T18:02:26.663Z,10.40
2023-01-13T18:05:15.042Z,8.40
2023-01-13T18:08:02.811Z,8.70
2023-01-13T18:10:53.013Z,8.70
2023-01-13T18:13:46.499Z,8.40
2023-01-13T18:16:38.490Z,8.10
2023-01-13T18:19:45.626Z,8.30
2023-01-13T18:22:50.543Z,8.30
2023-01-13T18:25:58.066Z,7.60
2023-01-13T18:28:52.989Z,8.20
2023-01-13T18:31:41.174Z,8.20
2023-01-13T18:34:29.549Z,9.50
2023-01-13T18:37:18.837Z,8.60
2023-01-13T18:40:09.504Z,8.00
2023-01-13T18:42:56.495Z,8.30
2023-01-13T18:45:51.720Z,7.90
2023-01-13T18:48:39.358Z,8.30
2023-01-13T18:51:29.896Z,8.30
2023-01-13T18:54:17.728Z,8.40
2023-01-13T18:57:05.530Z,8.30
2023-01-13T18:59:52.999Z,7.20
2023-01-13T19:02:45.473Z,8.30
2023-01-13T19:05:34.355Z,8.40
2023-01-13T19:08:21.946Z,8.50
2023-01-13T19:11:09.607Z,8.50
2023-01-13T19:13:57.187Z,9.40
2023-01-13T19:16:45.959Z,8.50
2023-01-13T19:19:35.488Z,8.00
2023-01-13T19:22:27.464Z,8.60
2023-01-13T19:25:17.226Z,8.50
2023-01-13T19:28:05.128Z,8.40
2023-01-13T19:30:52.942Z,8.80
2023-01-13T19:33:41.578Z,8.30
2023-01-13T19:36:30.748Z,8.20
2023-01-13T19:39:18.688Z,8.30
2023-01-13T19:42:23.442Z,8.60
2023-01-13T19:45:30.830Z,8.30
2023-01-13T19:48:18.683Z,8.30
2023-01-13T19:51:07.401Z,8.10
2023-01-13T19:53:56.562Z,8.10
2023-01-13T19:56:44.266Z,7.90
2023-01-13T19:59:33.363Z,7.90
2023-01-13T20:02:28.821Z,7.90
2023-01-13T20:05:21.246Z,7.90
2023-01-13T20:08:10.351Z,7.80
2023-01-13T20:11:20.565Z,7.80
2023-01-13T20:14:07.958Z,7.90
2023-01-13T20:16:55.530Z,8.20
2023-01-13T20:19:43.879Z,8.80
2023-01-13T20:22:31.780Z,7.70
2023-01-13T20:25:19.750Z,7.70
2023-01-13T20:28:09.443Z,7.70
2023-01-13T20:31:01.677Z,7.70
2023-01-13T20:33:50.343Z,7.80
2023-01-13T20:36:43.602Z,7.60
2023-01-13T20:39:34.334Z,7.50
2023-01-13T20:42:31.973Z,7.60
2023-01-13T20:45:23.409Z,7.60
2023-01-13T20:48:14.849Z,7.60
2023-01-13T20:51:02.269Z,8.50
2023-01-13T20:53:50.236Z,7.60
2023-01-13T20:56:38.446Z,7.50
2023-01-13T20:59:26.790Z,7.40
2023-01-13T21:02:16.751Z,7.40
2023-01-13T21:05:11.867Z,7.70
2023-01-13T21:08:00.141Z,7.50
2023-01-13T21:10:47.955Z,8.40
2023-01-13T21:13:55.869Z,7.70
2023-01-13T21:16:44.716Z,7.80
2023-01-13T21:19:35.610Z,7.80
2023-01-13T21:22:23.321Z,7.60
2023-01-13T21:25:12.717Z,7.60
2023-01-13T21:28:06.739Z,7.70
2023-01-13T21:30:55.385Z,7.30
2023-01-13T21:33:42.689Z,7.40
2023-01-13T21:36:32.683Z,7.60
2023-01-13T21:39:20.823Z,7.70
2023-01-13T21:42:26.356Z,7.40
2023-01-13T21:45:36.377Z,7.30
2023-01-13T21:48:26.224Z,9.30
2023-01-13T21:51:15.855Z,7.10
2023-01-13T21:54:05.194Z,5.00
2023-01-13T21:56:53.650Z,7.50
2023-01-13T21:59:42.073Z,7.20
2023-01-13T22:02:32.047Z,7.20
2023-01-13T22:05:21.940Z,7.20
2023-01-13T22:08:14.645Z,7.40
2023-01-13T22:11:09.493Z,4.90
2023-01-13T22:14:10.311Z,7.30
2023-01-13T22:17:01.107Z,7.20
2023-01-13T22:19:54.115Z,6.90
2023-01-13T22:22:42.159Z,7.40
2023-01-13T22:25:36.534Z,7.10
2023-01-13T22:28:34.217Z,7.10
2023-01-13T22:31:24.647Z,7.20
2023-01-13T22:34:13.166Z,7.40
2023-01-13T22:37:01.930Z,7.50
2023-01-13T22:39:50.177Z,7.00
2023-01-13T22:42:38.332Z,8.80
2023-01-13T22:45:27.485Z,7.00
2023-01-13T22:48:14.678Z,7.20
2023-01-13T22:51:08.125Z,6.90
2023-01-13T22:53:56.216Z,6.90
2023-01-13T22:56:47.819Z,7.10
2023-01-13T22:59:36.460Z,7.00
2023-01-13T23:02:27.054Z,7.00
2023-01-13T23:05:17.293Z,6.90
2023-01-13T23:08:05.962Z,6.80
2023-01-13T23:10:54.557Z,6.90
2023-01-13T23:13:43.551Z,6.80
2023-01-13T23:16:32.516Z,6.80
2023-01-13T23:19:24.018Z,6.80
2023-01-13T23:22:13.281Z,5.50
2023-01-13T23:25:03.477Z,5.20
2023-01-13T23:27:51.895Z,6.80
2023-01-13T23:30:41.080Z,6.90
2023-01-13T23:33:29.226Z,6.80
2023-01-13T23:36:21.957Z,7.00
2023-01-13T23:39:10.025Z,9.10
2023-01-13T23:41:59.661Z,6.80
2023-01-13T23:44:47.746Z,7.90
2023-01-13T23:47:36.513Z,6.60
2023-01-13T23:50:25.245Z,6.70
2023-01-13T23:53:17.367Z,6.50
2023-01-13T23:56:07.974Z,7.10
2023-01-13T23:58:58.816Z,6.90
